createdAt,value
2022-08-10T00:00:34.509Z,99019.72
2022-08-10T00:02:40.736Z,99015.38
2022-08-10T00:04:45.650Z,99017.28
2022-08-10T00:06:50.609Z,99012.97
2022-08-10T00:08:55.570Z,99013.81
2022-08-10T00:11:00.841Z,99014.03
2022-08-10T00:13:09.335Z,99018.75
2022-08-10T00:15:44.682Z,99010.19
2022-08-10T00:17:41.104Z,99020.16
2022-08-10T00:20:03.082Z,99023.25
2022-08-10T00:22:11.586Z,99015.53
2022-08-10T00:24:21.997Z,99018.44
2022-08-10T00:26:26.925Z,99003.97
2022-08-10T00:28:54.812Z,99012.97
2022-08-10T00:30:59.892Z,99005.13
2022-08-10T00:33:04.942Z,99009.38
2022-08-10T00:35:11.181Z,99000.56
2022-08-10T00:37:17.402Z,99003.13
2022-08-10T00:39:22.399Z,98997.94
2022-08-10T00:41:27.398Z,99006.84
2022-08-10T00:43:32.310Z,99002.47
2022-08-10T00:45:39.867Z,99001.78
2022-08-10T00:47:44.761Z,98994.88
2022-08-10T00:49:50.540Z,98999.44
2022-08-10T00:51:55.848Z,98998.69
2022-08-10T00:54:00.796Z,98997.09
2022-08-10T00:57:12.440Z,98999.06
2022-08-10T00:58:31.468Z,98995.78
2022-08-10T01:00:39.661Z,98990.91
2022-08-10T01:02:44.557Z,98991.50
2022-08-10T01:04:59.494Z,98991.50
2022-08-10T01:07:19.888Z,98994.16
2022-08-10T01:09:35.044Z,98994.47
2022-08-10T01:12:39.788Z,99000.84
2022-08-10T01:14:20.644Z,98994.94
2022-08-10T01:16:32.744Z,98997.06
2022-08-10T01:18:45.741Z,98995.69
2022-08-10T01:21:09.503Z,98998.47
2022-08-10T01:23:48.111Z,98995.69
2022-08-10T01:26:11.947Z,98992.22
2022-08-10T01:28:28.142Z,98998.81
2022-08-10T01:30:36.468Z,99006.88
2022-08-10T01:32:50.233Z,99001.78
2022-08-10T01:35:00.399Z,99002.34
2022-08-10T01:37:09.469Z,99008.06
2022-08-10T01:39:20.275Z,99002.59
2022-08-10T01:41:29.362Z,99009.66
2022-08-10T01:43:57.116Z,99001.41
2022-08-10T01:46:13.702Z,99003.53
2022-08-10T01:48:31.273Z,99004.69
2022-08-10T01:50:59.814Z,99003.84
2022-08-10T01:53:10.124Z,99003.75
2022-08-10T01:55:17.996Z,99000.16
2022-08-10T01:57:25.125Z,98997.63
2022-08-10T01:59:35.534Z,99002.03
2022-08-10T02:01:48.277Z,98998.56
2022-08-10T02:04:05.165Z,98999.53
2022-08-10T02:06:12.176Z,98997.72
2022-08-10T02:08:20.274Z,99005.78
2022-08-10T02:10:27.637Z,98997.94
2022-08-10T02:12:36.387Z,98995.41
2022-08-10T02:14:45.090Z,98998.16
2022-08-10T02:16:54.813Z,98996.47
2022-08-10T02:19:02.929Z,98996.47
2022-08-10T02:21:09.735Z,99005.47
2022-08-10T02:23:18.450Z,99000.25
2022-08-10T02:25:41.293Z,99005.03
2022-08-10T02:27:50.089Z,98997.53
2022-08-10T02:29:56.590Z,98997.03
2022-08-10T02:32:05.707Z,98999.75
2022-08-10T02:34:15.703Z,98997.31
2022-08-10T02:36:22.766Z,98995.84
2022-08-10T02:38:58.179Z,99006.53
2022-08-10T02:45:02.894Z,98999.00
2022-08-10T02:45:27.433Z,98996.81
2022-08-10T02:46:10.615Z,98994.47
2022-08-10T02:48:22.694Z,98997.22
2022-08-10T02:50:30.704Z,98999.09
2022-08-10T02:52:45.216Z,98993.94
2022-08-10T02:54:56.248Z,98997.84
2022-08-10T02:57:08.377Z,98993.69
2022-08-10T02:59:17.595Z,99002.75
2022-08-10T03:01:26.522Z,99000.53
2022-08-10T03:03:42.444Z,99007.72
2022-08-10T03:05:50.517Z,99008.00
2022-08-10T03:08:02.916Z,99004.53
2022-08-10T03:10:13.131Z,99005.47
2022-08-10T03:12:37.479Z,99002.84
2022-08-10T03:14:44.717Z,98998.69
2022-08-10T03:16:49.783Z,98999.78
2022-08-10T03:18:59.043Z,99001.75
2022-08-10T03:21:11.838Z,99003.75
2022-08-10T03:23:19.612Z,99008.28
2022-08-10T03:25:27.046Z,99004.06
2022-08-10T03:27:33.369Z,98999.72
2022-08-10T03:30:31.616Z,98995.28
2022-08-10T03:32:05.037Z,99007.63
2022-08-10T03:34:22.192Z,99010.41
2022-08-10T03:36:41.560Z,99014.06
2022-08-10T03:38:51.896Z,99014.06
2022-08-10T03:40:59.875Z,99010.41
2022-08-10T03:43:06.279Z,99009.44
2022-08-10T03:45:13.261Z,99003.41
2022-08-10T03:47:20.165Z,99010.59
2022-08-10T03:49:29.727Z,99003.81
2022-08-10T03:51:36.175Z,99007.59
2022-08-10T03:54:04.604Z,99004.34
2022-08-10T03:56:28.332Z,99004.53
2022-08-10T03:58:32.826Z,99009.91
2022-08-10T04:00:39.154Z,99017.25
2022-08-10T04:02:48.343Z,99013.88
2022-08-10T04:04:56.094Z,99018.41
2022-08-10T04:07:02.084Z,99019.34
2022-08-10T04:09:07.918Z,99020.59
2022-08-10T04:11:13.220Z,99026.03
2022-08-10T04:13:18.253Z,99033.22
2022-08-10T04:15:24.764Z,99031.53
2022-08-10T04:18:01.415Z,99031.72
2022-08-10T04:20:00.034Z,99033.50
2022-08-10T04:22:09.878Z,99028.34
2022-08-10T04:24:26.851Z,99032.88
2022-08-10T04:26:35.307Z,99034.03
2022-08-10T04:28:40.626Z,99033.81
2022-08-10T04:30:47.450Z,99032.75
2022-08-10T04:32:56.481Z,99038.50
2022-08-10T04:35:07.640Z,99033.13
2022-08-10T04:37:13.892Z,99025.88
2022-08-10T04:39:19.502Z,99020.41
2022-08-10T04:41:24.663Z,99027.09
2022-08-10T04:43:29.584Z,99020.84
2022-08-10T04:45:48.433Z,99025.09
2022-08-10T04:48:00.367Z,99025.94
2022-08-10T04:50:09.855Z,99025.81
2022-08-10T04:52:14.995Z,99020.66
2022-08-10T04:54:19.907Z,99027.91
2022-08-10T04:56:31.725Z,99027.09
2022-08-10T04:58:37.100Z,99028.00
2022-08-10T05:00:42.038Z,99026.97
2022-08-10T05:02:46.893Z,99033.09
2022-08-10T05:04:51.754Z,99026.00
2022-08-10T05:06:59.462Z,99024.88
2022-08-10T05:09:04.384Z,99025.63
2022-08-10T05:11:09.276Z,99032.50
2022-08-10T05:13:14.199Z,99040.31
2022-08-10T05:15:20.139Z,99036.09
2022-08-10T05:17:25.754Z,99036.72
2022-08-10T05:20:04.045Z,99040.19
2022-08-10T05:22:04.515Z,99041.81
2022-08-10T05:24:12.688Z,99041.59
2022-08-10T05:26:17.558Z,99044.03
2022-08-10T05:28:23.612Z,99045.63
2022-08-10T05:30:32.708Z,99048.94
2022-08-10T05:32:56.869Z,99052.44
2022-08-10T05:35:03.241Z,99055.72
2022-08-10T05:38:09.660Z,99053.72
2022-08-10T05:39:38.785Z,99051.81
2022-08-10T05:41:46.914Z,99054.16
2022-08-10T05:43:53.975Z,99050.38
2022-08-10T05:46:16.902Z,99047.63
2022-08-10T05:48:57.769Z,99043.22
2022-08-10T05:50:49.009Z,99042.88
2022-08-10T05:52:54.039Z,99045.13
2022-08-10T05:55:03.075Z,99048.34
2022-08-10T05:57:08.239Z,99051.06
2022-08-10T05:59:13.843Z,99048.13
2022-08-10T06:01:21.801Z,99042.59
2022-08-10T06:03:30.579Z,99052.22
2022-08-10T06:05:41.343Z,99047.97
2022-08-10T06:07:51.685Z,99053.69
2022-08-10T06:09:59.585Z,99050.28
2022-08-10T06:12:26.710Z,99049.44
2022-08-10T06:14:53.127Z,99050.19
2022-08-10T06:17:05.882Z,99057.28
2022-08-10T06:19:11.203Z,99051.13
2022-08-10T06:21:20.689Z,99048.31
2022-08-10T06:23:27.774Z,99054.44
2022-08-10T06:26:11.038Z,99052.81
2022-08-10T06:28:03.721Z,99056.00
2022-08-10T06:30:20.009Z,99054.94
2022-08-10T06:32:28.727Z,99050.72
2022-08-10T06:34:36.692Z,99063.31
2022-08-10T06:36:44.365Z,99064.34
2022-08-10T06:38:50.190Z,99056.69
2022-08-10T06:40:59.818Z,99051.13
2022-08-10T06:43:10.965Z,99054.69
2022-08-10T06:45:20.023Z,99051.72
2022-08-10T06:47:29.377Z,99048.91
2022-08-10T06:49:35.550Z,99049.00
2022-08-10T06:51:45.070Z,99051.94
2022-08-10T06:54:05.650Z,99052.69
2022-08-10T06:56:17.506Z,99049.09
2022-08-10T06:58:28.144Z,99055.19
2022-08-10T07:00:34.760Z,99052.06
2022-08-10T07:02:47.076Z,99045.81
2022-08-10T07:04:57.410Z,99048.25
2022-08-10T07:07:06.160Z,99050.69
2022-08-10T07:09:15.305Z,99046.47
2022-08-10T07:11:22.981Z,99047.81
2022-08-10T07:14:14.146Z,99042.00
2022-08-10T07:16:00.891Z,99045.50
2022-08-10T07:18:07.106Z,99040.19
2022-08-10T07:20:17.479Z,99032.47
2022-08-10T07:23:55.023Z,99039.69
2022-08-10T07:24:52.067Z,99039.13
2022-08-10T07:26:59.268Z,99044.41
2022-08-10T07:29:09.009Z,99038.81
2022-08-10T07:31:56.398Z,99028.19
2022-08-10T07:34:02.759Z,99033.69
2022-08-10T07:36:09.214Z,99036.31
2022-08-10T07:38:19.853Z,99034.59
2022-08-10T07:40:26.489Z,99032.72
2022-08-10T07:42:32.689Z,99035.63
2022-08-10T07:44:42.587Z,99040.16
2022-08-10T07:46:52.451Z,99032.69
2022-08-10T07:49:16.108Z,99028.00
2022-08-10T07:51:26.155Z,99038.13
2022-08-10T07:53:35.395Z,99040.66
2022-08-10T07:56:03.554Z,99033.91
2022-08-10T07:58:09.929Z,99035.84
2022-08-10T08:00:19.205Z,99030.00
2022-08-10T08:02:30.872Z,99030.91
2022-08-10T08:04:41.719Z,99028.41
2022-08-10T08:06:48.268Z,99031.75
2022-08-10T08:08:53.773Z,99032.72
2022-08-10T08:11:00.841Z,99027.53
2022-08-10T08:13:07.379Z,99027.97
2022-08-10T08:16:17.456Z,99025.78
2022-08-10T08:17:44.577Z,99027.34
2022-08-10T08:20:00.448Z,99028.50
2022-08-10T08:24:09.712Z,99025.28
2022-08-10T08:24:36.443Z,99028.25
2022-08-10T08:26:43.744Z,99027.25
2022-08-10T08:28:55.652Z,99028.69
2022-08-10T08:31:01.802Z,99027.13
2022-08-10T08:33:09.979Z,99028.84
2022-08-10T08:35:25.866Z,99031.63
2022-08-10T08:38:32.852Z,99028.03
2022-08-10T08:39:58.265Z,99026.63
2022-08-10T08:42:38.488Z,99027.22
2022-08-10T08:44:58.958Z,99021.72
2022-08-10T08:48:04.190Z,99021.19
2022-08-10T08:50:10.208Z,99021.44
2022-08-10T08:52:29.020Z,99022.00
2022-08-10T08:54:47.094Z,99022.41
2022-08-10T08:57:01.241Z,99026.78
2022-08-10T08:59:24.635Z,99017.78
2022-08-10T09:01:47.982Z,99019.59
2022-08-10T09:04:19.888Z,99016.50
2022-08-10T09:06:55.364Z,99017.47
2022-08-10T09:09:19.702Z,99012.78
2022-08-10T09:11:41.283Z,99011.50
2022-08-10T09:13:56.781Z,99012.31
2022-08-10T09:16:11.555Z,99009.19
2022-08-10T09:18:22.484Z,99014.38
2022-08-10T09:20:37.186Z,99012.97
2022-08-10T09:22:51.661Z,99004.31
2022-08-10T09:25:00.823Z,99003.72
2022-08-10T09:27:12.001Z,98997.38
2022-08-10T09:29:23.591Z,99007.06
2022-08-10T09:31:39.315Z,99001.88
2022-08-10T09:36:25.143Z,99004.53
2022-08-10T09:36:33.002Z,98999.78
2022-08-10T09:38:54.993Z,99000.88
2022-08-10T09:41:13.033Z,99000.88
2022-08-10T09:43:28.496Z,99004.81
2022-08-10T09:45:42.936Z,98997.03
2022-08-10T09:48:02.127Z,98991.56
2022-08-10T09:50:23.346Z,98997.91
2022-08-10T09:52:37.694Z,98997.44
2022-08-10T09:54:56.053Z,98984.88
2022-08-10T09:59:59.930Z,98985.91
2022-08-10T10:02:21.508Z,98990.38
2022-08-10T10:04:40.264Z,98983.84
2022-08-10T10:06:54.892Z,98994.19
2022-08-10T10:09:11.047Z,98977.53
2022-08-10T10:11:29.347Z,98983.34
2022-08-10T10:14:02.505Z,98974.78
2022-08-10T10:16:26.295Z,98969.22
2022-08-10T10:18:45.162Z,98970.75
2022-08-10T10:20:58.445Z,98968.69
2022-08-10T10:23:15.392Z,98967.28
2022-08-10T10:25:49.830Z,98962.03
2022-08-10T10:28:03.651Z,98963.53
2022-08-10T10:30:13.458Z,98953.88
2022-08-10T10:32:24.976Z,98945.06
2022-08-10T10:34:43.630Z,98943.38
2022-08-10T10:36:52.376Z,98941.75
2022-08-10T10:38:58.231Z,98948.63
2022-08-10T10:41:11.780Z,98934.72
2022-08-10T10:43:45.189Z,98945.78
2022-08-10T10:46:01.967Z,98939.25
2022-08-10T10:48:29.040Z,98941.22
2022-08-10T10:50:42.064Z,98944.00
2022-08-10T10:52:54.422Z,98945.81
2022-08-10T10:55:11.926Z,98950.44
2022-08-10T10:58:00.492Z,98945.38
2022-08-10T11:00:03.669Z,98936.16
2022-08-10T11:02:21.994Z,98927.88
2022-08-10T11:04:30.072Z,98932.56
2022-08-10T11:06:48.052Z,98924.94
2022-08-10T11:08:58.888Z,98927.38
2022-08-10T11:11:59.658Z,98922.06
2022-08-10T11:14:28.535Z,98915.03
2022-08-10T11:16:16.807Z,98925.94
2022-08-10T11:18:33.800Z,98920.94
2022-08-10T11:20:45.158Z,98919.41
2022-08-10T11:23:06.770Z,98919.75
2022-08-10T11:25:17.678Z,98923.72
2022-08-10T11:27:34.872Z,98923.41
2022-08-10T11:29:49.517Z,98924.78
2022-08-10T11:32:05.757Z,98925.88
2022-08-10T11:34:48.698Z,98925.50
2022-08-10T11:36:48.082Z,98922.41
2022-08-10T11:39:18.422Z,98924.19
2022-08-10T11:42:09.117Z,98924.75
2022-08-10T11:44:06.258Z,98920.22
2022-08-10T11:46:28.443Z,98910.59
2022-08-10T11:48:53.125Z,98909.34
2022-08-10T11:51:04.360Z,98902.94
2022-08-10T11:53:20.348Z,98899.22
2022-08-10T11:55:27.249Z,98894.84
2022-08-10T11:57:54.642Z,98898.75
2022-08-10T11:59:58.256Z,98901.78
2022-08-10T12:02:05.166Z,98903.69
2022-08-10T12:04:13.898Z,98895.84
2022-08-10T12:06:45.482Z,98893.72
2022-08-10T12:10:07.324Z,98889.56
2022-08-10T12:11:24.681Z,98892.28
2022-08-10T12:13:34.213Z,98885.25
2022-08-10T12:15:46.450Z,98892.03
2022-08-10T12:17:56.555Z,98885.78
2022-08-10T12:20:09.601Z,98875.91
2022-08-10T12:22:18.077Z,98877.63
2022-08-10T12:24:36.349Z,98888.53
2022-08-10T12:26:47.545Z,98885.22
2022-08-10T12:28:58.971Z,98885.41
2022-08-10T12:31:09.269Z,98880.03
2022-08-10T12:33:24.215Z,98866.28
2022-08-10T12:35:40.140Z,98877.34
2022-08-10T12:37:54.945Z,98877.84
2022-08-10T12:40:33.905Z,98872.97
2022-08-10T12:42:41.077Z,98862.75
2022-08-10T12:44:52.810Z,98868.00
2022-08-10T12:47:05.762Z,98863.47
2022-08-10T12:49:24.023Z,98869.16
2022-08-10T12:51:33.823Z,98859.63
2022-08-10T12:53:52.949Z,98857.78
2022-08-10T12:56:01.709Z,98857.09
2022-08-10T12:58:57.173Z,98862.28
2022-08-10T13:00:53.834Z,98862.28
2022-08-10T13:03:04.718Z,98854.88
2022-08-10T13:05:13.768Z,98849.38
2022-08-10T13:08:24.284Z,98847.50
2022-08-10T13:09:54.778Z,98846.78
2022-08-10T13:12:35.886Z,98841.91
2022-08-10T13:14:34.192Z,98840.72
2022-08-10T13:16:40.068Z,98842.88
2022-08-10T13:18:46.720Z,98848.59
2022-08-10T13:20:54.798Z,98845.09
2022-08-10T13:23:06.136Z,98837.63
2022-08-10T13:25:13.466Z,98841.47
2022-08-10T13:27:25.972Z,98835.31
2022-08-10T13:29:50.978Z,98833.47
2022-08-10T13:32:08.908Z,98834.31
2022-08-10T13:34:42.809Z,98827.97
2022-08-10T13:36:52.070Z,98833.66
2022-08-10T13:39:02.784Z,98827.66
2022-08-10T13:41:08.855Z,98826.78
2022-08-10T13:43:15.253Z,98829.47
2022-08-10T13:45:23.092Z,98815.91
2022-08-10T13:47:42.400Z,98822.09
2022-08-10T13:49:59.013Z,98815.84
2022-08-10T13:52:06.308Z,98810.81
2022-08-10T13:54:14.611Z,98811.28
2022-08-10T13:56:20.546Z,98817.00
2022-08-10T13:58:29.240Z,98818.09
2022-08-10T14:00:38.519Z,98813.84
2022-08-10T14:02:48.920Z,98807.06
2022-08-10T14:04:55.476Z,98800.84
2022-08-10T14:07:03.257Z,98798.97
2022-08-10T14:09:15.914Z,98799.16
2022-08-10T14:11:23.217Z,98788.84
2022-08-10T14:13:30.643Z,98791.81
2022-08-10T14:15:38.526Z,98786.38
2022-08-10T14:17:45.220Z,98777.13
2022-08-10T14:19:58.725Z,98780.03
2022-08-10T14:22:04.968Z,98774.41
2022-08-10T14:24:26.054Z,98775.63
2022-08-10T14:26:33.107Z,98780.13
2022-08-10T14:28:42.771Z,98776.91
2022-08-10T14:30:50.250Z,98777.38
2022-08-10T14:32:56.776Z,98777.38
2022-08-10T14:36:21.752Z,98775.91
2022-08-10T14:37:37.870Z,98773.38
2022-08-10T14:39:50.575Z,98774.06
2022-08-10T14:42:03.156Z,98775.09
2022-08-10T14:44:16.047Z,98768.41
2022-08-10T14:46:23.807Z,98765.84
2022-08-10T14:48:32.955Z,98766.38
2022-08-10T14:50:38.778Z,98768.00
2022-08-10T14:53:02.543Z,98754.84
2022-08-10T14:55:19.728Z,98760.31
2022-08-10T14:58:16.877Z,98768.78
2022-08-10T15:00:25.444Z,98762.41
2022-08-10T15:02:38.603Z,98763.31
2022-08-10T15:04:47.380Z,98754.06
2022-08-10T15:06:57.357Z,98749.81
2022-08-10T15:09:12.685Z,98746.38
2022-08-10T15:12:15.571Z,98751.59
2022-08-10T15:14:14.769Z,98757.34
2022-08-10T15:16:20.732Z,98754.91
2022-08-10T15:18:27.855Z,98745.81
2022-08-10T15:20:34.763Z,98744.03
2022-08-10T15:22:40.726Z,98741.97
2022-08-10T15:25:04.758Z,98743.72
2022-08-10T15:27:14.296Z,98736.59
2022-08-10T15:29:25.728Z,98733.38
2022-08-10T15:31:34.964Z,98728.81
2022-08-10T15:34:04.247Z,98732.34
2022-08-10T15:36:24.274Z,98732.44
2022-08-10T15:38:36.269Z,98723.97
2022-08-10T15:40:50.401Z,98726.81
2022-08-10T15:43:05.789Z,98717.81
2022-08-10T15:45:25.806Z,98719.88
2022-08-10T15:47:46.271Z,98720.69
2022-08-10T15:49:56.216Z,98721.84
2022-08-10T15:52:06.843Z,98724.13
2022-08-10T15:54:16.099Z,98711.63
2022-08-10T15:56:28.190Z,98708.69
2022-08-10T15:58:41.279Z,98706.84
2022-08-10T16:00:52.020Z,98722.53
2022-08-10T16:03:01.606Z,98718.72
2022-08-10T16:05:14.277Z,98719.38
2022-08-10T16:07:23.052Z,98716.50
2022-08-10T16:10:10.818Z,98718.81
2022-08-10T16:12:29.338Z,98720.88
2022-08-10T16:14:40.455Z,98718.25
2022-08-10T16:16:49.353Z,98723.28
2022-08-10T16:18:56.539Z,98718.84
2022-08-10T16:21:03.737Z,98712.25
2022-08-10T16:23:13.967Z,98710.28
2022-08-10T16:25:20.673Z,98709.00
2022-08-10T16:27:29.333Z,98705.72
2022-08-10T16:29:55.967Z,98719.59
2022-08-10T16:32:04.337Z,98710.09
2022-08-10T16:34:17.195Z,98706.31
2022-08-10T16:36:23.547Z,98705.16
2022-08-10T16:38:29.876Z,98697.16
2022-08-10T16:40:35.822Z,98710.78
2022-08-10T16:42:45.133Z,98705.44
2022-08-10T16:44:59.714Z,98705.66
2022-08-10T16:47:06.389Z,98708.53
2022-08-10T16:49:12.908Z,98709.34
2022-08-10T16:51:23.353Z,98713.22
2022-08-10T16:53:30.210Z,98709.88
2022-08-10T16:55:47.496Z,98712.56
2022-08-10T16:57:58.642Z,98711.91
2022-08-10T17:00:09.369Z,98710.09
2022-08-10T17:02:18.595Z,98703.91
2022-08-10T17:04:26.285Z,98710.56
2022-08-10T17:06:33.712Z,98704.88
2022-08-10T17:08:48.141Z,98710.72
2022-08-10T17:10:54.907Z,98709.38
2022-08-10T17:13:01.402Z,98710.22
2022-08-10T17:15:11.966Z,98711.22
2022-08-10T17:17:22.598Z,98705.00
2022-08-10T17:19:29.444Z,98705.31
2022-08-10T17:21:40.937Z,98714.34
2022-08-10T17:23:59.140Z,98705.63
2022-08-10T17:26:12.212Z,98705.28
2022-08-10T17:28:33.215Z,98713.06
2022-08-10T17:30:58.178Z,98714.72
2022-08-10T17:33:07.912Z,98706.69
2022-08-10T17:35:23.353Z,98714.72
2022-08-10T17:37:33.550Z,98705.84
2022-08-10T17:39:44.270Z,98717.03
2022-08-10T17:41:52.396Z,98710.03
2022-08-10T17:44:03.233Z,98714.69
2022-08-10T17:46:14.971Z,98710.63
2022-08-10T17:48:23.766Z,98711.28
2022-08-10T17:50:33.167Z,98705.94
2022-08-10T17:52:38.762Z,98714.59
2022-08-10T17:54:45.591Z,98711.28
2022-08-10T17:56:54.225Z,98713.25
2022-08-10T17:59:03.077Z,98714.75
2022-08-10T18:01:41.024Z,98713.06
2022-08-10T18:03:39.423Z,98711.19
2022-08-10T18:05:45.970Z,98714.59
2022-08-10T18:07:55.943Z,98713.25
2022-08-10T18:10:03.684Z,98724.41
2022-08-10T18:12:17.854Z,98721.53
2022-08-10T18:14:24.964Z,98720.66
2022-08-10T18:16:34.805Z,98716.94
2022-08-10T18:18:41.394Z,98724.56
2022-08-10T18:20:46.509Z,98724.19
2022-08-10T18:22:53.382Z,98721.00
2022-08-10T18:25:00.882Z,98731.00
2022-08-10T18:27:08.446Z,98728.94
2022-08-10T18:29:19.398Z,98728.41
2022-08-10T18:31:27.986Z,98728.00
2022-08-10T18:33:38.643Z,98733.47
2022-08-10T18:35:46.727Z,98729.31
2022-08-10T18:37:54.761Z,98731.44
2022-08-10T18:40:05.061Z,98738.91
2022-08-10T18:42:15.125Z,98736.72
2022-08-10T18:44:23.912Z,98732.66
2022-08-10T18:46:32.672Z,98731.44
2022-08-10T18:48:44.903Z,98732.59
2022-08-10T18:50:53.585Z,98733.19
2022-08-10T18:53:03.741Z,98737.16
2022-08-10T18:55:24.579Z,98739.44
2022-08-10T18:57:42.299Z,98744.06
2022-08-10T19:00:18.410Z,98744.53
2022-08-10T19:02:40.696Z,98748.66
2022-08-10T19:05:07.055Z,98754.44
2022-08-10T19:07:52.270Z,98751.63
2022-08-10T19:10:11.299Z,98757.56
2022-08-10T19:12:33.671Z,98759.56
2022-08-10T19:14:45.148Z,98759.97
2022-08-10T19:17:09.972Z,98771.06
2022-08-10T19:19:28.897Z,98771.38
2022-08-10T19:21:44.500Z,98774.63
2022-08-10T19:23:58.344Z,98772.44
2022-08-10T19:26:37.998Z,98770.06
2022-08-10T19:28:53.454Z,98763.47
2022-08-10T19:31:05.730Z,98770.06
2022-08-10T19:33:25.243Z,98766.03
2022-08-10T19:36:03.928Z,98770.13
2022-08-10T19:38:32.882Z,98771.41
2022-08-10T19:40:45.923Z,98763.09
2022-08-10T19:42:59.164Z,98764.38
2022-08-10T19:45:55.463Z,98774.50
2022-08-10T19:47:47.924Z,98766.38
2022-08-10T19:50:00.881Z,98766.66
2022-08-10T19:52:12.411Z,98772.56
2022-08-10T19:54:27.757Z,98768.47
2022-08-10T19:56:45.227Z,98768.22
2022-08-10T19:58:59.352Z,98765.84
2022-08-10T20:01:07.002Z,98763.47
2022-08-10T20:03:21.819Z,98781.41
2022-08-10T20:05:35.246Z,98778.31
2022-08-10T20:07:49.949Z,98774.38
2022-08-10T20:10:06.822Z,98781.81
2022-08-10T20:12:21.604Z,98778.72
2022-08-10T20:14:32.640Z,98781.13
2022-08-10T20:16:39.961Z,98782.47
2022-08-10T20:18:50.566Z,98787.13
2022-08-10T20:21:01.923Z,98785.69
2022-08-10T20:23:20.995Z,98790.47
2022-08-10T20:25:32.357Z,98797.88
2022-08-10T20:28:00.294Z,98790.31
2022-08-10T20:30:09.795Z,98790.59
2022-08-10T20:32:20.627Z,98785.41
2022-08-10T20:34:32.998Z,98784.97
2022-08-10T20:36:50.001Z,98786.94
2022-08-10T20:39:06.383Z,98789.75
2022-08-10T20:41:31.351Z,98787.91
2022-08-10T20:43:42.399Z,98781.06
2022-08-10T20:46:09.443Z,98783.84
2022-08-10T20:48:21.557Z,98782.56
2022-08-10T20:50:37.017Z,98789.13
2022-08-10T20:52:44.697Z,98780.59
2022-08-10T20:54:55.284Z,98787.03
2022-08-10T20:57:56.659Z,98786.31
2022-08-10T21:00:04.153Z,98786.16
2022-08-10T21:02:33.470Z,98774.94
2022-08-10T21:04:53.384Z,98782.44
2022-08-10T21:07:28.170Z,98774.75
2022-08-10T21:10:04.590Z,98781.31
2022-08-10T21:12:39.114Z,98771.06
2022-08-10T21:14:52.540Z,98781.13
2022-08-10T21:17:15.986Z,98778.75
2022-08-10T21:19:37.548Z,98779.13
2022-08-10T21:24:25.655Z,98776.91
2022-08-10T21:25:41.672Z,98778.31
2022-08-10T21:26:45.770Z,98775.72
2022-08-10T21:29:13.047Z,98782.28
2022-08-10T21:31:41.688Z,98780.44
2022-08-10T21:33:55.526Z,98781.22
2022-08-10T21:36:09.909Z,98784.97
2022-08-10T21:38:21.563Z,98781.03
2022-08-10T21:40:35.519Z,98778.75
2022-08-10T21:43:02.890Z,98781.78
2022-08-10T21:45:57.896Z,98783.72
2022-08-10T21:48:20.285Z,98785.91
2022-08-10T21:50:58.386Z,98788.00
2022-08-10T21:53:43.948Z,98786.44
2022-08-10T21:56:14.228Z,98791.28
2022-08-10T21:58:38.851Z,98787.94
2022-08-10T22:01:06.798Z,98783.72
2022-08-10T22:03:27.491Z,98783.97
2022-08-10T22:06:02.632Z,98792.03
2022-08-10T22:08:20.311Z,98784.34
2022-08-10T22:10:42.296Z,98780.00
2022-08-10T22:13:02.362Z,98780.00
2022-08-10T22:15:22.867Z,98774.72
2022-08-10T22:18:10.173Z,98776.63
2022-08-10T22:20:32.350Z,98775.59
2022-08-10T22:22:58.755Z,98772.63
2022-08-10T22:25:19.019Z,98776.97
2022-08-10T22:27:47.166Z,98770.13
2022-08-10T22:30:10.255Z,98766.03
2022-08-10T22:32:40.490Z,98766.19
2022-08-10T22:35:30.662Z,98773.53
2022-08-10T22:37:56.792Z,98760.75
2022-08-10T22:40:17.290Z,98762.22
2022-08-10T22:42:58.937Z,98760.75
2022-08-10T22:45:24.922Z,98766.31
2022-08-10T22:47:45.219Z,98769.22
2022-08-10T22:49:53.922Z,98766.72
2022-08-10T22:52:13.923Z,98766.81
2022-08-10T22:54:36.561Z,98767.66
2022-08-10T22:56:55.581Z,98759.13
2022-08-10T22:59:00.649Z,98766.34
2022-08-10T23:01:35.247Z,98765.41
2022-08-10T23:03:49.880Z,98770.06
2022-08-10T23:06:03.941Z,98766.72
2022-08-10T23:08:29.620Z,98769.75
2022-08-10T23:10:44.109Z,98774.44
2022-08-10T23:12:52.513Z,98773.72
2022-08-10T23:15:12.296Z,98770.38
2022-08-10T23:18:01.235Z,98767.97
2022-08-10T23:20:06.262Z,98774.22
2022-08-10T23:22:16.668Z,98777.09
2022-08-10T23:24:31.627Z,98780.84
2022-08-10T23:26:39.268Z,98776.50
2022-08-10T23:28:58.355Z,98778.44
2022-08-10T23:31:13.931Z,98770.63
2022-08-10T23:33:37.690Z,98772.78
2022-08-10T23:36:30.965Z,98761.47
2022-08-10T23:38:19.527Z,98762.53
2022-08-10T23:40:25.715Z,98759.78
2022-08-10T23:42:40.094Z,98757.25
2022-08-10T23:44:47.026Z,98759.28
2022-08-10T23:47:05.681Z,98763.88
2022-08-10T23:49:14.555Z,98758.81
2022-08-10T23:51:21.270Z,98760.63
2022-08-10T23:53:34.556Z,98763.16
2022-08-10T23:55:49.542Z,98760.63
2022-08-10T23:57:59.618Z,98759.78
